Time;durP1;ratioP1;P1;durP2;ratioP2;P2;SDS_P1;SDS_P2;PMS_P1;PMS_P2;Temp;Humidity;BMP_temperature;BMP_pressure;BME280_temperature;BME280_humidity;BME280_pressure;Samples;Min_cycle;Max_cycle;Signal;HPM_P1;HPM_P2
2023/04/11 00:01:28;;;;;;;9.13;2.22;;;8.70;99.90;;;;;;4976221;28;20073;-85
2023/04/11 00:03:55;;;;;;;8.18;1.63;;;8.70;99.90;;;;;;4976579;28;20084;-86
2023/04/11 00:06:22;;;;;;;8.85;1.63;;;9.10;99.90;;;;;;4975109;28;20562;-87
2023/04/11 00:08:48;;;;;;;8.13;1.90;;;8.50;99.90;;;;;;4977102;28;20068;-87
2023/04/11 00:11:14;;;;;;;11.73;1.85;;;8.50;99.90;;;;;;4976614;28;20379;-87
2023/04/11 00:13:41;;;;;;;11.35;2.00;;;8.40;99.90;;;;;;4972313;28;20221;-87
2023/04/11 00:16:07;;;;;;;7.28;1.40;;;8.40;99.90;;;;;;4973199;28;20092;-86
2023/04/11 00:18:35;;;;;;;7.90;1.42;;;8.30;99.90;;;;;;4972869;28;20054;-86
2023/04/11 00:21:03;;;;;;;7.18;1.77;;;8.30;99.90;;;;;;4971917;28;20046;-87
2023/04/11 00:23:29;;;;;;;12.65;2.10;;;8.30;99.90;;;;;;4975627;28;20100;-87
2023/04/11 00:25:54;;;;;;;10.32;2.15;;;8.20;99.90;;;;;;4973271;28;20205;-87
2023/04/11 00:28:20;;;;;;;8.82;1.90;;;8.20;99.90;;;;;;4967729;28;20050;-87
2023/04/11 00:30:48;;;;;;;11.18;2.00;;;8.20;99.90;;;;;;4980830;28;20523;-87
2023/04/11 00:33:15;;;;;;;11.93;2.78;;;8.10;99.90;;;;;;4973173;28;20124;-87
2023/04/11 00:35:52;;;;;;;13.50;3.10;;;8.10;99.90;;;;;;4973316;28;20046;-87
2023/04/11 00:38:18;;;;;;;11.10;2.80;;;8.00;99.90;;;;;;4973058;28;20518;-86
2023/04/11 00:40:45;;;;;;;16.40;3.70;;;7.90;99.90;;;;;;4972432;28;20046;-87
2023/04/11 00:43:10;;;;;;;15.13;4.03;;;8.20;99.90;;;;;;4966701;28;20530;-86
2023/04/11 00:45:37;;;;;;;18.77;2.95;;;7.80;99.90;;;;;;4965667;28;20047;-87
2023/04/11 00:48:02;;;;;;;17.85;3.90;;;7.80;99.90;;;;;;4973361;28;20200;-87
2023/04/11 00:50:41;;;;;;;15.77;4.40;;;7.90;99.90;;;;;;4972179;28;20521;-87
2023/04/11 00:53:09;;;;;;;19.98;4.18;;;7.60;99.90;;;;;;4964843;28;20042;-87
2023/04/11 00:55:35;;;;;;;20.02;4.00;;;7.60;99.90;;;;;;4967524;28;20133;-86
2023/04/11 00:58:01;;;;;;;21.85;3.92;;;7.60;99.90;;;;;;4989576;28;20137;-87
2023/04/11 01:00:34;;;;;;;24.38;3.90;;;7.50;99.90;;;;;;4970532;28;20042;-87
2023/04/11 01:03:00;;;;;;;15.43;3.08;;;7.10;99.90;;;;;;4962418;28;20458;-87
2023/04/11 01:05:26;;;;;;;16.67;3.25;;;7.50;99.90;;;;;;4971870;28;20042;-87
2023/04/11 01:07:54;;;;;;;23.75;3.60;;;7.40;99.90;;;;;;4973242;28;20077;-88
2023/04/11 01:10:29;;;;;;;21.38;3.05;;;7.40;99.90;;;;;;4971979;28;20577;-87
2023/04/11 01:13:05;;;;;;;15.23;3.33;;;7.40;99.90;;;;;;4973673;28;20054;-88
2023/04/11 01:15:56;;;;;;;23.83;3.40;;;7.30;99.90;;;;;;4972392;28;20138;-87
2023/04/11 01:18:24;;;;;;;20.48;3.13;;;7.30;99.90;;;;;;4972659;28;20051;-88
2023/04/11 01:20:50;;;;;;;21.52;3.20;;;7.30;99.90;;;;;;4971718;28;20166;-88
2023/04/11 01:23:22;;;;;;;22.17;3.38;;;7.60;99.90;;;;;;4988305;28;20138;-87
2023/04/11 01:25:48;;;;;;;19.42;3.38;;;7.20;99.90;;;;;;4972509;28;20133;-86
2023/04/11 01:28:13;;;;;;;24.15;3.33;;;7.20;99.90;;;;;;4972471;28;20137;-86
2023/04/11 01:30:39;;;;;;;20.55;3.45;;;7.20;99.90;;;;;;4961620;28;20133;-87
2023/04/11 01:33:05;;;;;;;19.20;3.25;;;7.20;99.90;;;;;;4969481;28;20039;-87
2023/04/11 01:35:37;;;;;;;19.00;2.63;;;7.70;99.90;;;;;;4970840;28;20137;-86
2023/04/11 01:38:04;;;;;;;22.40;3.10;;;7.10;99.90;;;;;;4971505;28;20053;-87
2023/04/11 01:40:31;;;;;;;25.63;4.03;;;7.10;99.90;;;;;;4971175;28;20069;-86
2023/04/11 01:42:58;;;;;;;20.85;3.60;;;7.20;99.90;;;;;;4972337;28;20100;-87
2023/04/11 01:45:26;;;;;;;13.07;2.75;;;7.10;99.90;;;;;;4966672;28;20074;-86
2023/04/11 01:47:53;;;;;;;16.48;2.55;;;7.10;99.90;;;;;;4972163;28;20124;-87
2023/04/11 01:50:20;;;;;;;18.33;2.50;;;7.20;99.90;;;;;;4971998;28;20101;-87
2023/04/11 01:52:48;;;;;;;18.88;2.58;;;7.70;99.90;;;;;;4952081;28;20058;-86
2023/04/11 01:55:14;;;;;;;12.15;2.55;;;7.20;99.90;;;;;;4964247;28;20069;-86
2023/04/11 01:57:40;;;;;;;8.98;1.70;;;7.20;99.90;;;;;;4971002;28;20057;-86
2023/04/11 02:00:07;;;;;;;14.57;2.00;;;7.30;99.90;;;;;;4971098;28;20500;-86
2023/04/11 02:02:33;;;;;;;14.55;2.25;;;7.30;99.90;;;;;;4971210;28;20478;-87
2023/04/11 02:04:59;;;;;;;12.63;1.92;;;7.30;99.90;;;;;;4988236;28;20097;-87
2023/04/11 02:07:25;;;;;;;13.30;1.70;;;7.30;99.90;;;;;;4985875;28;20046;-87
2023/04/11 02:09:50;;;;;;;12.35;1.90;;;7.30;99.90;;;;;;4987799;28;20080;-86
2023/04/11 02:12:16;;;;;;;7.97;1.10;;;7.30;99.90;;;;;;4965456;28;20046;-87
2023/04/11 02:14:44;;;;;;;4.40;1.05;;;7.30;99.90;;;;;;4973808;28;20402;-88
2023/04/11 02:17:11;;;;;;;10.80;1.17;;;7.30;99.90;;;;;;4975037;28;20111;-88
2023/04/11 02:19:39;;;;;;;7.57;1.00;;;7.30;99.90;;;;;;4975052;28;20072;-87
2023/04/11 02:22:07;;;;;;;8.13;0.98;;;7.40;99.90;;;;;;4990248;28;20505;-88
2023/04/11 02:24:33;;;;;;;6.35;1.10;;;7.40;99.90;;;;;;4973635;28;20056;-87
2023/04/11 02:27:00;;;;;;;8.65;1.17;;;7.40;99.90;;;;;;4978145;28;20042;-87
2023/04/11 02:29:27;;;;;;;8.05;1.05;;;7.30;99.90;;;;;;4974792;28;20053;-87
2023/04/11 02:31:53;;;;;;;7.65;0.85;;;7.40;99.90;;;;;;4974414;28;20045;-88
2023/04/11 02:34:18;;;;;;;8.20;0.90;;;7.30;99.90;;;;;;4974565;28;20050;-87
2023/04/11 02:36:44;;;;;;;7.55;0.95;;;7.30;99.90;;;;;;4974137;28;20533;-87
2023/04/11 02:39:11;;;;;;;6.32;1.10;;;7.40;99.90;;;;;;4974882;28;20133;-88
2023/04/11 02:41:39;;;;;;;6.82;1.20;;;7.30;99.90;;;;;;4990150;28;20038;-87
2023/04/11 02:44:09;;;;;;;5.95;1.15;;;7.30;99.90;;;;;;4972811;28;20100;-88
2023/04/11 02:46:35;;;;;;;4.63;1.08;;;7.60;99.90;;;;;;4974392;28;20125;-87
2023/04/11 02:49:00;;;;;;;7.32;1.10;;;7.30;99.90;;;;;;4973825;28;20513;-88
2023/04/11 02:51:27;;;;;;;5.25;0.95;;;7.80;99.90;;;;;;4973577;28;20034;-87
2023/04/11 02:53:53;;;;;;;9.63;1.55;;;7.40;99.90;;;;;;4974227;28;20033;-88
2023/04/11 02:56:20;;;;;;;7.72;1.08;;;7.40;99.90;;;;;;4973677;28;20085;-87
2023/04/11 02:58:46;;;;;;;6.88;0.85;;;7.50;99.90;;;;;;4990818;28;20557;-87
2023/04/11 03:01:13;;;;;;;3.78;0.82;;;7.40;99.90;;;;;;4974160;28;20129;-88
2023/04/11 03:03:40;;;;;;;4.75;1.13;;;7.40;99.90;;;;;;4973811;28;20521;-86
2023/04/11 03:06:06;;;;;;;5.90;1.27;;;7.40;99.90;;;;;;4973165;28;20038;-85
2023/04/11 03:08:34;;;;;;;7.00;1.35;;;7.40;99.90;;;;;;4989054;28;20183;-86
2023/04/11 03:11:00;;;;;;;8.85;1.45;;;7.70;99.90;;;;;;4973792;28;20107;-85
2023/04/11 03:13:26;;;;;;;5.75;1.42;;;7.80;99.90;;;;;;4989407;28;20066;-86
2023/04/11 03:15:52;;;;;;;8.18;1.25;;;7.40;99.90;;;;;;4972791;28;20057;-85
2023/04/11 03:18:19;;;;;;;8.65;1.33;;;7.30;99.90;;;;;;4989087;28;20049;-86
2023/04/11 03:20:45;;;;;;;6.78;1.33;;;7.40;99.90;;;;;;4972765;28;20050;-85
2023/04/11 03:23:11;;;;;;;7.68;1.63;;;7.40;99.90;;;;;;4988469;28;20096;-86
2023/04/11 03:25:37;;;;;;;11.10;1.73;;;7.60;99.90;;;;;;4973457;28;20084;-85
2023/04/11 03:28:03;;;;;;;8.32;1.30;;;7.40;99.90;;;;;;4973700;28;20038;-86
2023/04/11 03:30:29;;;;;;;7.43;1.60;;;7.40;99.90;;;;;;4971833;28;20061;-86
2023/04/11 03:32:59;;;;;;;9.13;1.50;;;7.50;99.90;;;;;;4989674;28;20095;-86
2023/04/11 03:35:24;;;;;;;8.70;1.75;;;7.40;99.90;;;;;;4972620;28;20121;-86
2023/04/11 03:37:50;;;;;;;9.05;1.70;;;7.40;99.90;;;;;;4972631;28;20169;-86
2023/04/11 03:40:17;;;;;;;14.50;1.85;;;7.40;99.90;;;;;;4973244;28;20068;-86
2023/04/11 03:42:45;;;;;;;7.72;1.60;;;7.30;99.90;;;;;;4989027;28;20464;-86
2023/04/11 03:45:11;;;;;;;11.32;1.75;;;7.80;99.90;;;;;;4972555;28;20500;-86
2023/04/11 03:47:38;;;;;;;12.98;1.75;;;7.30;99.90;;;;;;4970678;28;20054;-86
2023/04/11 03:50:04;;;;;;;6.40;1.50;;;7.70;99.90;;;;;;4979383;28;20049;-86
2023/04/11 03:52:30;;;;;;;14.20;1.67;;;7.20;99.90;;;;;;4970965;28;20038;-85
2023/04/11 03:54:56;;;;;;;10.88;1.90;;;8.20;99.90;;;;;;4989999;28;20160;-86
2023/04/11 03:57:21;;;;;;;13.27;2.20;;;7.30;99.90;;;;;;4973114;28;20133;-86
2023/04/11 03:59:47;;;;;;;10.80;2.25;;;7.30;99.90;;;;;;4972360;28;20581;-86
2023/04/11 04:02:14;;;;;;;11.23;2.20;;;7.60;99.90;;;;;;4972947;28;20042;-86
2023/04/11 04:04:45;;;;;;;10.07;2.05;;;7.30;99.90;;;;;;4974377;28;20108;-86
2023/04/11 04:07:11;;;;;;;12.68;2.17;;;7.30;99.90;;;;;;4976201;28;20057;-87
2023/04/11 04:09:38;;;;;;;18.55;2.50;;;7.80;99.90;;;;;;4976238;28;20045;-86
2023/04/11 04:12:04;;;;;;;17.63;2.42;;;7.40;99.90;;;;;;4975978;28;20041;-86
2023/04/11 04:14:30;;;;;;;12.02;2.97;;;7.30;99.90;;;;;;4992078;28;20437;-87
2023/04/11 04:16:56;;;;;;;15.73;2.33;;;7.40;99.90;;;;;;4976797;28;20057;-87
2023/04/11 04:19:21;;;;;;;16.25;3.17;;;7.40;99.90;;;;;;4976015;28;20041;-87
2023/04/11 04:21:48;;;;;;;13.68;2.50;;;7.40;99.90;;;;;;4992602;28;20057;-89
2023/04/11 04:24:14;;;;;;;13.88;2.53;;;7.40;99.90;;;;;;4977047;28;20050;-86
2023/04/11 04:26:40;;;;;;;22.45;2.63;;;7.70;99.90;;;;;;4975420;28;20064;-87
2023/04/11 04:29:08;;;;;;;18.15;3.05;;;7.50;99.90;;;;;;4976962;28;20123;-86
2023/04/11 04:31:37;;;;;;;14.77;3.03;;;7.50;99.90;;;;;;4976180;28;20076;-87
2023/04/11 04:34:09;;;;;;;16.58;2.70;;;7.50;99.90;;;;;;4976111;28;20077;-86
2023/04/11 04:36:48;;;;;;;13.32;2.28;;;7.50;99.90;;;;;;4990626;28;20074;-86
2023/04/11 04:39:16;;;;;;;13.00;2.50;;;7.50;99.90;;;;;;4976039;28;20137;-86
2023/04/11 04:41:47;;;;;;;12.95;2.45;;;7.50;99.90;;;;;;4991388;28;20046;-86
2023/04/11 04:44:15;;;;;;;13.55;2.83;;;7.50;99.90;;;;;;4974133;28;20482;-87
2023/04/11 04:46:41;;;;;;;14.60;2.55;;;7.50;99.90;;;;;;4976340;28;20406;-86
2023/04/11 04:49:07;;;;;;;20.20;2.28;;;7.50;99.90;;;;;;4975536;28;20128;-86
2023/04/11 04:51:35;;;;;;;18.23;2.50;;;7.50;99.90;;;;;;4974199;28;20073;-86
2023/04/11 04:54:00;;;;;;;14.93;4.35;;;7.40;99.90;;;;;;4991917;28;20042;-86
2023/04/11 04:56:29;;;;;;;19.08;3.60;;;7.40;99.90;;;;;;4975149;28;20041;-86
2023/04/11 04:58:55;;;;;;;15.93;3.10;;;7.60;99.90;;;;;;4976261;28;20525;-86
2023/04/11 05:01:21;;;;;;;19.02;3.08;;;7.30;99.90;;;;;;4974336;28;20052;-86
2023/04/11 05:03:49;;;;;;;14.05;2.88;;;7.30;99.90;;;;;;4992371;28;20053;-86
2023/04/11 05:06:15;;;;;;;18.42;3.55;;;7.30;99.90;;;;;;4975100;28;20053;-86
2023/04/11 05:08:41;;;;;;;16.20;3.13;;;7.40;99.90;;;;;;4974693;28;20038;-87
2023/04/11 05:11:07;;;;;;;17.30;3.17;;;7.40;99.90;;;;;;4975891;28;20046;-87
2023/04/11 05:13:33;;;;;;;17.63;2.50;;;7.30;99.90;;;;;;4974939;28;20064;-88
2023/04/11 05:15:59;;;;;;;15.75;3.17;;;7.80;99.90;;;;;;4974285;28;20045;-87
2023/04/11 05:18:28;;;;;;;16.75;2.78;;;7.40;99.90;;;;;;4975643;28;20042;-87
2023/04/11 05:20:53;;;;;;;19.27;2.88;;;7.90;99.90;;;;;;4975054;28;20488;-86
2023/04/11 05:23:19;;;;;;;16.48;2.60;;;7.40;99.90;;;;;;4975374;28;20049;-87
2023/04/11 05:25:45;;;;;;;16.38;3.22;;;7.40;99.90;;;;;;4975140;28;20468;-86
2023/04/11 05:28:11;;;;;;;9.98;2.33;;;7.80;99.90;;;;;;4975462;28;20041;-86
2023/04/11 05:30:36;;;;;;;13.27;2.40;;;7.40;99.90;;;;;;4974252;28;20042;-87
2023/04/11 05:33:02;;;;;;;13.93;2.78;;;8.00;99.90;;;;;;4991839;28;20497;-86
2023/04/11 05:35:28;;;;;;;18.73;2.72;;;7.50;99.90;;;;;;4974946;28;20470;-86
2023/04/11 05:37:54;;;;;;;19.23;3.17;;;7.50;99.90;;;;;;4974378;28;20466;-86
2023/04/11 05:40:20;;;;;;;13.25;3.08;;;8.30;99.90;;;;;;4991039;28;20048;-87
2023/04/11 05:42:45;;;;;;;15.27;2.63;;;7.50;99.90;;;;;;4974893;28;20076;-87
2023/04/11 05:45:11;;;;;;;19.35;3.20;;;7.50;99.90;;;;;;4986691;28;20042;-86
2023/04/11 05:47:37;;;;;;;14.73;2.85;;;7.40;99.90;;;;;;4974628;28;20092;-86
2023/04/11 05:50:02;;;;;;;14.10;2.50;;;7.50;99.90;;;;;;4991155;28;20096;-86
2023/04/11 05:52:28;;;;;;;15.00;3.60;;;7.40;99.90;;;;;;4973383;28;20076;-87
2023/04/11 05:54:54;;;;;;;14.48;3.13;;;7.60;99.90;;;;;;4975097;28;20046;-87
2023/04/11 05:57:25;;;;;;;13.80;2.92;;;7.40;99.90;;;;;;4973925;28;20037;-87
2023/04/11 05:59:51;;;;;;;13.80;2.88;;;7.40;99.90;;;;;;4974941;28;20049;-86
2023/04/11 06:02:17;;;;;;;16.95;2.90;;;7.40;99.90;;;;;;4974564;28;20068;-86
2023/04/11 06:04:43;;;;;;;11.93;2.75;;;7.40;99.90;;;;;;4964695;28;20486;-86
2023/04/11 06:07:09;;;;;;;14.75;3.22;;;7.50;99.90;;;;;;4987097;28;20478;-86
2023/04/11 06:09:35;;;;;;;22.77;4.22;;;7.40;99.90;;;;;;4974930;28;20049;-86
2023/04/11 06:12:02;;;;;;;16.90;2.78;;;7.50;99.90;;;;;;4973717;28;20034;-86
2023/04/11 06:14:28;;;;;;;17.35;3.60;;;8.10;99.90;;;;;;4974333;28;20049;-87
2023/04/11 06:16:54;;;;;;;17.50;2.75;;;8.30;99.90;;;;;;4974654;28;20048;-86
2023/04/11 06:19:19;;;;;;;10.95;2.33;;;7.60;99.90;;;;;;4989702;28;20563;-87
2023/04/11 06:21:45;;;;;;;13.35;3.03;;;7.60;99.90;;;;;;4974108;28;20517;-87
2023/04/11 06:24:11;;;;;;;14.20;3.13;;;7.60;99.90;;;;;;4974159;28;20057;-86
2023/04/11 06:26:37;;;;;;;15.05;2.75;;;8.10;99.90;;;;;;4973673;28;20136;-87
2023/04/11 06:29:04;;;;;;;16.20;3.33;;;8.20;99.90;;;;;;4974696;28;20042;-86
2023/04/11 06:31:31;;;;;;;16.10;3.13;;;7.80;99.90;;;;;;4973741;28;20037;-88
2023/04/11 06:33:56;;;;;;;15.75;2.97;;;7.90;99.90;;;;;;4974320;28;20136;-86
2023/04/11 06:36:29;;;;;;;19.55;3.55;;;7.90;99.90;;;;;;4971777;28;20144;-87
2023/04/11 06:38:54;;;;;;;18.07;3.53;;;8.00;99.90;;;;;;4973973;28;20050;-86
2023/04/11 06:41:27;;;;;;;19.15;3.15;;;8.10;99.90;;;;;;4983447;28;20352;-85
2023/04/11 06:43:53;;;;;;;15.63;2.78;;;8.00;99.90;;;;;;4964315;28;20137;-85
2023/04/11 06:46:21;;;;;;;17.95;2.97;;;8.10;99.90;;;;;;4972488;28;20124;-86
2023/04/11 06:48:47;;;;;;;18.42;2.83;;;8.00;99.90;;;;;;4990585;28;20045;-86
2023/04/11 06:51:13;;;;;;;11.18;2.03;;;8.00;99.90;;;;;;4987102;28;20038;-86
2023/04/11 06:53:38;;;;;;;13.00;2.83;;;7.90;99.90;;;;;;4966324;28;20050;-85
2023/04/11 06:56:04;;;;;;;17.35;3.28;;;7.80;99.90;;;;;;4989958;28;20068;-85
2023/04/11 06:58:30;;;;;;;16.00;3.53;;;7.70;99.90;;;;;;4969502;28;20494;-85
2023/04/11 07:00:56;;;;;;;20.80;3.30;;;7.70;99.90;;;;;;4972867;28;20040;-85
2023/04/11 07:03:23;;;;;;;22.20;3.88;;;8.30;99.90;;;;;;4972736;28;20046;-86
2023/04/11 07:05:50;;;;;;;18.52;3.13;;;7.80;99.90;;;;;;4973233;28;20049;-86
2023/04/11 07:08:16;;;;;;;20.13;3.25;;;7.80;99.90;;;;;;4988955;28;20050;-85
2023/04/11 07:10:41;;;;;;;19.10;3.75;;;7.90;99.90;;;;;;4989367;28;20099;-85
2023/04/11 07:13:07;;;;;;;19.17;3.42;;;7.90;99.90;;;;;;4974015;28;20149;-85
2023/04/11 07:15:33;;;;;;;16.95;3.45;;;8.00;99.90;;;;;;4971746;28;20050;-85
2023/04/11 07:17:58;;;;;;;16.60;2.75;;;8.10;99.90;;;;;;4990059;28;20077;-85
2023/04/11 07:20:24;;;;;;;21.63;3.55;;;8.20;99.90;;;;;;4972880;28;20137;-86
2023/04/11 07:22:51;;;;;;;20.83;3.22;;;8.30;99.90;;;;;;4971930;28;20054;-84
2023/04/11 07:25:17;;;;;;;22.20;2.67;;;8.40;99.90;;;;;;4970274;28;20065;-85
2023/04/11 07:27:45;;;;;;;19.48;3.08;;;8.80;99.90;;;;;;4989670;28;20137;-86
2023/04/11 07:30:11;;;;;;;15.55;2.65;;;8.60;99.90;;;;;;4989540;28;20463;-88
2023/04/11 07:32:37;;;;;;;21.77;2.58;;;8.60;99.90;;;;;;4989524;28;20389;-86
2023/04/11 07:35:08;;;;;;;18.30;2.85;;;8.70;99.90;;;;;;4973920;28;20041;-86
2023/04/11 07:37:34;;;;;;;14.90;3.03;;;8.70;99.90;;;;;;4972133;28;20042;-86
2023/04/11 07:40:00;;;;;;;22.52;3.13;;;8.80;99.90;;;;;;4976634;28;20100;-85
2023/04/11 07:42:25;;;;;;;20.45;3.60;;;8.80;99.90;;;;;;4976358;28;20037;-84
2023/04/11 07:44:51;;;;;;;20.67;3.50;;;8.90;99.90;;;;;;4988472;28;20089;-84
2023/04/11 07:47:17;;;;;;;19.92;2.75;;;9.00;99.90;;;;;;4976474;28;20042;-84
2023/04/11 07:49:45;;;;;;;23.58;2.92;;;9.00;99.90;;;;;;4992742;28;20050;-85
2023/04/11 07:52:11;;;;;;;15.02;3.05;;;9.10;99.90;;;;;;4992223;28;20048;-84
2023/04/11 07:54:36;;;;;;;17.55;2.70;;;9.10;99.90;;;;;;4993444;28;20038;-85
2023/04/11 07:57:02;;;;;;;17.60;2.80;;;9.20;99.90;;;;;;4975690;28;20449;-85
2023/04/11 07:59:28;;;;;;;19.92;3.13;;;9.30;99.90;;;;;;4976696;28;20104;-85
2023/04/11 08:01:59;;;;;;;20.58;3.42;;;9.20;99.90;;;;;;4992442;28;20061;-84
2023/04/11 08:04:25;;;;;;;22.55;2.72;;;9.20;99.90;;;;;;4991776;28;20444;-84
2023/04/11 08:06:54;;;;;;;16.55;2.47;;;9.20;99.90;;;;;;4976120;28;20050;-84
2023/04/11 08:09:20;;;;;;;17.27;2.95;;;9.10;99.90;;;;;;4976248;28;20049;-85
2023/04/11 08:11:46;;;;;;;12.77;2.25;;;9.00;99.90;;;;;;4975393;28;20037;-84
2023/04/11 08:14:11;;;;;;;14.50;2.15;;;8.90;99.90;;;;;;4973021;28;20053;-83
2023/04/11 08:16:37;;;;;;;14.43;2.40;;;8.80;99.90;;;;;;4989260;28;20061;-84
2023/04/11 08:19:03;;;;;;;18.35;3.10;;;8.70;99.90;;;;;;4972511;28;20038;-84
2023/04/11 08:21:28;;;;;;;11.75;2.40;;;8.60;99.90;;;;;;4971626;28;20148;-84
2023/04/11 08:23:54;;;;;;;11.85;2.53;;;8.70;99.90;;;;;;4973226;28;20094;-84
2023/04/11 08:26:20;;;;;;;13.13;2.40;;;8.90;99.90;;;;;;4987778;28;20042;-83
2023/04/11 08:28:45;;;;;;;15.82;2.63;;;9.50;99.90;;;;;;4989581;28;20078;-85
2023/04/11 08:31:11;;;;;;;11.73;2.65;;;8.90;99.90;;;;;;4972713;28;20147;-83
2023/04/11 08:33:38;;;;;;;15.90;3.10;;;8.70;99.90;;;;;;4988972;28;20380;-84
2023/04/11 08:36:08;;;;;;;12.55;2.55;;;8.60;99.90;;;;;;4988354;28;20378;-84
2023/04/11 08:38:35;;;;;;;12.45;2.20;;;8.60;99.90;;;;;;4972562;28;20081;-85
2023/04/11 08:41:01;;;;;;;24.13;3.83;;;8.70;99.90;;;;;;4988252;28;20056;-85
2023/04/11 08:43:27;;;;;;;16.05;2.47;;;8.70;99.90;;;;;;4972261;28;20034;-85
2023/04/11 08:45:53;;;;;;;16.10;2.55;;;8.80;99.90;;;;;;4972940;28;20104;-84
2023/04/11 08:48:24;;;;;;;18.20;2.58;;;8.80;99.90;;;;;;4971847;28;20437;-85
2023/04/11 08:50:49;;;;;;;16.55;2.38;;;8.90;99.90;;;;;;4971747;28;20089;-85
2023/04/11 08:53:17;;;;;;;15.82;2.53;;;8.90;99.90;;;;;;4987871;28;20465;-85
2023/04/11 08:55:45;;;;;;;19.33;2.97;;;9.00;99.90;;;;;;4988371;28;20080;-85
2023/04/11 08:58:11;;;;;;;14.18;2.33;;;9.20;99.90;;;;;;4988239;28;20054;-84
2023/04/11 09:00:37;;;;;;;16.02;2.33;;;9.40;99.90;;;;;;4971438;28;20049;-84
2023/04/11 09:03:05;;;;;;;10.80;2.30;;;9.50;99.90;;;;;;4989586;28;20042;-85
2023/04/11 09:05:36;;;;;;;17.77;2.38;;;9.80;99.90;;;;;;4970987;28;20138;-84
2023/04/11 09:08:05;;;;;;;8.50;1.95;;;10.00;99.90;;;;;;4971828;28;20092;-84
2023/04/11 09:10:32;;;;;;;12.57;1.67;;;10.00;99.90;;;;;;4952654;28;20426;-85
2023/04/11 09:12:58;;;;;;;8.15;1.52;;;10.10;99.90;;;;;;4960992;28;20479;-85
2023/04/11 09:15:26;;;;;;;12.85;1.75;;;10.20;99.90;;;;;;4952146;28;20105;-84
2023/04/11 09:17:52;;;;;;;14.70;2.35;;;10.30;99.90;;;;;;4952994;28;20047;-84
2023/04/11 09:20:24;;;;;;;12.85;2.10;;;10.60;99.90;;;;;;4952117;28;20054;-84
2023/04/11 09:22:52;;;;;;;17.58;1.98;;;10.50;99.90;;;;;;4968183;28;20430;-84
2023/04/11 09:25:19;;;;;;;13.40;2.40;;;10.70;99.90;;;;;;4968187;28;20113;-84
2023/04/11 09:27:46;;;;;;;9.15;1.20;;;10.90;99.90;;;;;;4952817;28;20069;-84
2023/04/11 09:30:22;;;;;;;6.57;1.23;;;10.70;99.90;;;;;;4951703;28;20074;-84
2023/04/11 09:32:51;;;;;;;7.15;1.63;;;10.20;99.90;;;;;;4952545;28;20047;-85
2023/04/11 09:35:22;;;;;;;11.50;1.60;;;9.80;99.90;;;;;;4951834;28;20483;-84
2023/04/11 09:37:51;;;;;;;16.02;1.83;;;9.60;99.90;;;;;;4952008;28;20085;-85
2023/04/11 09:40:19;;;;;;;16.33;1.70;;;9.50;99.90;;;;;;4952296;28;20041;-85
2023/04/11 09:42:45;;;;;;;7.30;1.27;;;9.30;99.90;;;;;;4951436;28;20055;-86
2023/04/11 09:45:18;;;;;;;11.13;1.63;;;9.10;99.90;;;;;;4964286;28;20039;-85
2023/04/11 09:47:45;;;;;;;11.15;1.95;;;8.90;99.90;;;;;;4967586;28;20074;-85
2023/04/11 09:50:12;;;;;;;11.98;1.55;;;8.80;99.90;;;;;;4952083;28;20137;-85
2023/04/11 09:52:42;;;;;;;4.80;0.85;;;8.70;99.90;;;;;;4951279;28;20039;-85
2023/04/11 09:55:11;;;;;;;6.68;0.93;;;8.70;99.90;;;;;;4968643;28;20081;-86
2023/04/11 09:57:40;;;;;;;10.38;1.90;;;8.60;99.90;;;;;;4951348;28;20035;-85
2023/04/11 10:00:13;;;;;;;7.22;1.92;;;8.90;99.90;;;;;;4953054;28;20057;-85
2023/04/11 10:02:40;;;;;;;8.68;1.83;;;9.30;99.90;;;;;;4951299;28;20042;-85
2023/04/11 10:05:07;;;;;;;15.50;2.00;;;9.50;99.90;;;;;;4938939;29;20053;-85
2023/04/11 10:07:35;;;;;;;11.70;1.10;;;9.60;99.90;;;;;;4938554;28;20090;-85
2023/04/11 10:10:02;;;;;;;6.47;1.02;;;9.40;99.90;;;;;;4952360;28;20050;-85
2023/04/11 10:12:32;;;;;;;6.43;1.00;;;9.00;99.90;;;;;;4950789;28;20097;-85
2023/04/11 10:15:11;;;;;;;10.38;1.50;;;8.70;99.90;;;;;;4991286;28;20042;-84
2023/04/11 10:17:39;;;;;;;7.72;1.48;;;8.60;99.90;;;;;;4973627;28;20455;-84
2023/04/11 10:20:30;;;;;;;8.95;1.23;;;9.00;99.90;;;;;;4974485;28;20455;-85
2023/04/11 10:22:58;;;;;;;4.68;0.85;;;8.60;99.90;;;;;;4990711;28;20058;-85
2023/04/11 10:25:24;;;;;;;4.55;0.80;;;9.00;99.90;;;;;;4973234;28;20505;-85
2023/04/11 10:27:52;;;;;;;5.47;0.90;;;8.80;99.90;;;;;;4974262;28;20050;-85
2023/04/11 10:30:38;;;;;;;9.85;1.52;;;9.30;99.90;;;;;;4990535;28;20092;-85
2023/04/11 10:33:10;;;;;;;11.13;2.00;;;9.20;99.90;;;;;;4990230;28;20034;-85
2023/04/11 10:35:57;;;;;;;8.07;1.10;;;9.60;99.90;;;;;;4973440;28;20073;-85
2023/04/11 10:38:43;;;;;;;7.30;1.00;;;9.50;99.90;;;;;;4973813;28;20038;-85
2023/04/11 10:41:15;;;;;;;20.25;1.98;;;9.50;99.90;;;;;;4990691;28;20116;-84
2023/04/11 10:43:41;;;;;;;7.00;1.30;;;9.20;99.90;;;;;;4972545;28;20092;-84
2023/04/11 10:46:23;;;;;;;5.88;1.10;;;9.00;99.90;;;;;;4973849;28;20038;-84
2023/04/11 10:49:01;;;;;;;6.15;0.80;;;8.50;99.90;;;;;;4990771;28;20038;-84
2023/04/11 10:51:32;;;;;;;9.30;1.17;;;8.20;99.90;;;;;;4973407;28;20034;-84
2023/04/11 10:53:58;;;;;;;4.80;0.80;;;7.90;99.90;;;;;;4987047;28;20053;-84
2023/04/11 10:56:52;;;;;;;5.50;0.70;;;7.90;99.90;;;;;;4990031;28;20574;-84
2023/04/11 10:59:33;;;;;;;;;;;7.90;99.90;;;;;;4973936;28;20048;-85
2023/04/11 11:02:00;;;;;;;6.28;1.75;;;7.90;99.90;;;;;;4989137;28;19965;-85
2023/04/11 11:04:34;;;;;;;7.90;1.30;;;8.10;99.90;;;;;;4973376;28;20509;-84
2023/04/11 11:07:03;;;;;;;10.60;1.48;;;8.30;99.90;;;;;;4972016;28;20038;-84
2023/04/11 11:09:29;;;;;;;12.52;1.75;;;8.50;99.90;;;;;;4994008;28;20084;-84
2023/04/11 11:12:12;;;;;;;9.05;1.63;;;8.70;99.90;;;;;;4969068;28;20030;-85
2023/04/11 11:14:43;;;;;;;12.73;2.25;;;8.80;99.90;;;;;;4989254;28;20125;-85
2023/04/11 11:17:11;;;;;;;11.43;1.98;;;8.90;99.90;;;;;;4992787;28;20046;-85
2023/04/11 11:19:43;;;;;;;9.52;1.73;;;8.90;99.90;;;;;;4976201;28;20069;-85
2023/04/11 11:22:24;;;;;;;15.13;2.47;;;9.10;99.90;;;;;;4997114;28;20053;-84
2023/04/11 11:24:50;;;;;;;11.20;2.20;;;9.40;99.90;;;;;;4979473;28;20141;-84
2023/04/11 11:27:23;;;;;;;12.95;1.98;;;9.40;99.90;;;;;;4978687;28;20125;-85
2023/04/11 11:29:49;;;;;;;9.82;1.90;;;9.60;99.90;;;;;;4981056;28;20129;-85
2023/04/11 11:32:25;;;;;;;8.32;1.52;;;9.90;99.90;;;;;;4983440;28;20046;-85
2023/04/11 11:34:51;;;;;;;11.00;2.03;;;10.10;99.90;;;;;;4983002;28;20064;-84
2023/04/11 11:37:17;;;;;;;9.23;1.42;;;10.30;99.90;;;;;;4981235;28;20136;-85
2023/04/11 11:39:43;;;;;;;15.32;2.22;;;10.40;99.90;;;;;;4973342;28;20124;-85
2023/04/11 11:42:12;;;;;;;10.30;1.50;;;10.60;99.90;;;;;;4984622;28;20447;-84
2023/04/11 11:44:37;;;;;;;9.10;1.83;;;10.70;99.90;;;;;;4977986;28;20049;-84
2023/04/11 11:47:05;;;;;;;7.63;1.52;;;10.50;99.90;;;;;;4977535;28;20485;-84
2023/04/11 11:49:45;;;;;;;7.47;1.38;;;10.50;99.90;;;;;;4976353;28;20517;-84
2023/04/11 11:52:12;;;;;;;8.35;1.83;;;10.70;99.90;;;;;;4992449;28;20111;-84
2023/04/11 11:54:43;;;;;;;8.52;1.73;;;10.70;99.90;;;;;;4993815;28;20049;-88
2023/04/11 11:57:09;;;;;;;7.45;1.25;;;10.80;99.90;;;;;;4976397;28;20046;-84
2023/04/11 11:59:35;;;;;;;7.18;1.40;;;11.10;99.90;;;;;;4976848;28;20500;-84
2023/04/11 12:02:01;;;;;;;8.07;1.38;;;11.30;99.90;;;;;;4977056;28;20048;-84
2023/04/11 12:04:29;;;;;;;8.23;1.35;;;11.70;99.90;;;;;;4975953;28;20481;-84
2023/04/11 12:06:55;;;;;;;6.95;1.35;;;11.50;99.90;;;;;;4975784;28;20489;-84
2023/04/11 12:09:20;;;;;;;11.27;1.70;;;11.60;99.90;;;;;;4976771;28;20128;-84
2023/04/11 12:11:46;;;;;;;16.27;2.30;;;11.70;99.90;;;;;;4975945;28;20081;-83
2023/04/11 12:14:21;;;;;;;12.95;1.90;;;11.60;99.90;;;;;;4977006;28;20054;-83
2023/04/11 12:16:48;;;;;;;15.82;2.17;;;11.40;99.90;;;;;;4976580;28;20475;-84
2023/04/11 12:19:13;;;;;;;5.07;0.95;;;11.00;99.90;;;;;;4977230;28;20492;-84
2023/04/11 12:21:39;;;;;;;13.00;1.73;;;10.40;99.90;;;;;;4963268;28;20614;-85
2023/04/11 12:24:05;;;;;;;14.65;2.33;;;10.00;99.90;;;;;;4978492;28;20115;-87
2023/04/11 12:26:31;;;;;;;10.45;1.77;;;9.90;99.90;;;;;;4977535;28;20504;-85
2023/04/11 12:28:57;;;;;;;14.38;2.65;;;9.90;99.90;;;;;;4978134;28;20042;-86
2023/04/11 12:31:24;;;;;;;16.45;2.40;;;10.00;99.90;;;;;;4977766;28;20046;-87
2023/04/11 12:33:49;;;;;;;14.48;2.60;;;10.20;99.90;;;;;;4978585;28;20049;-85
2023/04/11 12:36:15;;;;;;;22.05;2.88;;;10.10;99.90;;;;;;4975856;28;20509;-84
2023/04/11 12:38:41;;;;;;;17.58;2.50;;;10.00;99.90;;;;;;4975907;28;20414;-83
2023/04/11 12:41:07;;;;;;;13.02;2.20;;;10.00;99.90;;;;;;4992080;28;20042;-83
2023/04/11 12:43:32;;;;;;;9.02;2.10;;;10.00;99.90;;;;;;4992699;28;20156;-86
2023/04/11 12:45:58;;;;;;;8.10;1.38;;;9.90;99.90;;;;;;4976262;28;20052;-83
2023/04/11 12:48:24;;;;;;;12.52;1.85;;;10.40;99.90;;;;;;4976424;28;20050;-82
2023/04/11 12:50:49;;;;;;;11.45;1.92;;;9.90;99.90;;;;;;4976291;28;20060;-84